sensor_id;sensor_type;location;lat;lon;timestamp;temperature;humidity
14142;DHT22;7151;52.246;4.820;2022-12-11T00:02:01;6.70;88.10
14142;DHT22;7151;52.246;4.820;2022-12-11T00:04:27;6.70;88.20
14142;DHT22;7151;52.246;4.820;2022-12-11T00:06:53;6.60;88.10
14142;DHT22;7151;52.246;4.820;2022-12-11T00:09:19;6.70;88.20
14142;DHT22;7151;52.246;4.820;2022-12-11T00:11:46;6.70;88.10
14142;DHT22;7151;52.246;4.820;2022-12-11T00:14:12;6.70;88.10
14142;DHT22;7151;52.246;4.820;2022-12-11T00:16:38;6.70;88.10
14142;DHT22;7151;52.246;4.820;2022-12-11T00:19:04;6.70;88.10
14142;DHT22;7151;52.246;4.820;2022-12-11T00:21:30;6.60;88.10
14142;DHT22;7151;52.246;4.820;2022-12-11T00:23:56;6.70;88.20
14142;DHT22;7151;52.246;4.820;2022-12-11T00:26:21;6.70;88.20
14142;DHT22;7151;52.246;4.820;2022-12-11T00:28:51;6.70;88.90
14142;DHT22;7151;52.246;4.820;2022-12-11T00:31:18;6.70;88.20
14142;DHT22;7151;52.246;4.820;2022-12-11T00:33:45;6.70;88.20
14142;DHT22;7151;52.246;4.820;2022-12-11T00:36:21;6.70;88.20
14142;DHT22;7151;52.246;4.820;2022-12-11T00:38:48;6.70;88.10
14142;DHT22;7151;52.246;4.820;2022-12-11T00:41:15;6.70;88.10
14142;DHT22;7151;52.246;4.820;2022-12-11T00:43:41;6.60;88.10
14142;DHT22;7151;52.246;4.820;2022-12-11T00:46:06;6.60;88.10
14142;DHT22;7151;52.246;4.820;2022-12-11T00:48:32;6.60;88.10
14142;DHT22;7151;52.246;4.820;2022-12-11T00:50:58;6.60;88.10
14142;DHT22;7151;52.246;4.820;2022-12-11T00:53:24;6.60;88.80
14142;DHT22;7151;52.246;4.820;2022-12-11T00:55:50;6.60;88.20
14142;DHT22;7151;52.246;4.820;2022-12-11T00:58:15;6.60;88.20
14142;DHT22;7151;52.246;4.820;2022-12-11T01:00:41;6.60;88.10
14142;DHT22;7151;52.246;4.820;2022-12-11T01:03:08;6.60;88.20
14142;DHT22;7151;52.246;4.820;2022-12-11T01:05:34;6.60;88.20
14142;DHT22;7151;52.246;4.820;2022-12-11T01:08:00;6.60;88.20
14142;DHT22;7151;52.246;4.820;2022-12-11T01:10:25;6.60;88.40
14142;DHT22;7151;52.246;4.820;2022-12-11T01:12:55;6.60;88.40
14142;DHT22;7151;52.246;4.820;2022-12-11T01:15:24;6.60;88.50
14142;DHT22;7151;52.246;4.820;2022-12-11T01:17:50;6.60;88.50
14142;DHT22;7151;52.246;4.820;2022-12-11T01:20:19;6.60;88.40
14142;DHT22;7151;52.246;4.820;2022-12-11T01:22:45;6.60;88.40
14142;DHT22;7151;52.246;4.820;2022-12-11T01:25:10;6.60;88.40
14142;DHT22;7151;52.246;4.820;2022-12-11T01:27:37;6.60;88.40
14142;DHT22;7151;52.246;4.820;2022-12-11T01:30:05;6.60;88.40
14142;DHT22;7151;52.246;4.820;2022-12-11T01:32:31;6.60;88.50
14142;DHT22;7151;52.246;4.820;2022-12-11T01:34:57;6.60;88.50
14142;DHT22;7151;52.246;4.820;2022-12-11T01:37:23;6.60;88.60
14142;DHT22;7151;52.246;4.820;2022-12-11T01:39:48;6.70;88.70
14142;DHT22;7151;52.246;4.820;2022-12-11T01:42:17;6.70;88.70
14142;DHT22;7151;52.246;4.820;2022-12-11T01:47:08;6.70;88.60
14142;DHT22;7151;52.246;4.820;2022-12-11T01:49:34;6.70;88.60
14142;DHT22;7151;52.246;4.820;2022-12-11T01:52:18;6.70;88.60
14142;DHT22;7151;52.246;4.820;2022-12-11T01:54:45;6.70;88.60
14142;DHT22;7151;52.246;4.820;2022-12-11T01:57:12;6.70;88.50
14142;DHT22;7151;52.246;4.820;2022-12-11T01:59:42;6.70;88.50
14142;DHT22;7151;52.246;4.820;2022-12-11T02:02:20;6.70;88.50
14142;DHT22;7151;52.246;4.820;2022-12-11T02:04:47;6.70;88.60
14142;DHT22;7151;52.246;4.820;2022-12-11T02:07:14;6.70;88.60
14142;DHT22;7151;52.246;4.820;2022-12-11T02:09:41;6.70;88.70
14142;DHT22;7151;52.246;4.820;2022-12-11T02:17:18;6.70;88.70
14142;DHT22;7151;52.246;4.820;2022-12-11T02:28:32;6.70;88.50
14142;DHT22;7151;52.246;4.820;2022-12-11T02:31:26;6.70;88.60
14142;DHT22;7151;52.246;4.820;2022-12-11T02:34:10;6.70;88.60
14142;DHT22;7151;52.246;4.820;2022-12-11T02:36:44;6.70;89.30
14142;DHT22;7151;52.246;4.820;2022-12-11T02:39:13;6.70;88.60
14142;DHT22;7151;52.246;4.820;2022-12-11T02:41:43;6.70;88.60
14142;DHT22;7151;52.246;4.820;2022-12-11T02:44:13;6.70;88.50
14142;DHT22;7151;52.246;4.820;2022-12-11T02:46:40;6.70;89.10
14142;DHT22;7151;52.246;4.820;2022-12-11T02:49:08;6.70;88.80
14142;DHT22;7151;52.246;4.820;2022-12-11T02:51:39;6.70;88.40
14142;DHT22;7151;52.246;4.820;2022-12-11T02:54:08;6.70;88.40
14142;DHT22;7151;52.246;4.820;2022-12-11T02:56:50;6.70;88.40
14142;DHT22;7151;52.246;4.820;2022-12-11T02:59:25;6.70;88.40
14142;DHT22;7151;52.246;4.820;2022-12-11T03:01:53;6.70;88.30
14142;DHT22;7151;52.246;4.820;2022-12-11T03:04:18;6.70;88.30
14142;DHT22;7151;52.246;4.820;2022-12-11T03:06:51;6.70;88.30
14142;DHT22;7151;52.246;4.820;2022-12-11T03:09:19;6.70;88.20
14142;DHT22;7151;52.246;4.820;2022-12-11T03:11:45;6.70;88.20
14142;DHT22;7151;52.246;4.820;2022-12-11T03:14:10;6.70;88.10
14142;DHT22;7151;52.246;4.820;2022-12-11T03:16:40;6.60;88.00
14142;DHT22;7151;52.246;4.820;2022-12-11T03:19:13;6.60;88.10
14142;DHT22;7151;52.246;4.820;2022-12-11T03:21:47;6.60;88.10
14142;DHT22;7151;52.246;4.820;2022-12-11T03:24:37;6.60;88.10
14142;DHT22;7151;52.246;4.820;2022-12-11T03:29:44;6.60;88.20
14142;DHT22;7151;52.246;4.820;2022-12-11T03:32:17;6.60;88.10
14142;DHT22;7151;52.246;4.820;2022-12-11T03:34:58;6.60;88.10
14142;DHT22;7151;52.246;4.820;2022-12-11T03:37:30;6.60;87.90
14142;DHT22;7151;52.246;4.820;2022-12-11T03:39:59;6.60;87.80
14142;DHT22;7151;52.246;4.820;2022-12-11T03:42:26;6.60;87.80
14142;DHT22;7151;52.246;4.820;2022-12-11T03:44:53;6.60;87.70
14142;DHT22;7151;52.246;4.820;2022-12-11T03:47:22;6.60;87.70
14142;DHT22;7151;52.246;4.820;2022-12-11T03:49:50;6.60;87.70
14142;DHT22;7151;52.246;4.820;2022-12-11T03:52:17;6.60;87.70
14142;DHT22;7151;52.246;4.820;2022-12-11T03:54:46;6.60;87.60
14142;DHT22;7151;52.246;4.820;2022-12-11T03:57:17;6.60;87.60
14142;DHT22;7151;52.246;4.820;2022-12-11T03:59:43;6.60;87.60
14142;DHT22;7151;52.246;4.820;2022-12-11T04:02:08;6.60;88.30
14142;DHT22;7151;52.246;4.820;2022-12-11T04:04:36;6.60;87.60
14142;DHT22;7151;52.246;4.820;2022-12-11T04:07:02;6.60;87.60
14142;DHT22;7151;52.246;4.820;2022-12-11T04:09:28;6.60;87.60
14142;DHT22;7151;52.246;4.820;2022-12-11T04:11:53;6.60;87.60
14142;DHT22;7151;52.246;4.820;2022-12-11T04:14:19;6.60;87.60
14142;DHT22;7151;52.246;4.820;2022-12-11T04:17:03;6.60;87.60
14142;DHT22;7151;52.246;4.820;2022-12-11T04:19:29;6.60;87.60
14142;DHT22;7151;52.246;4.820;2022-12-11T04:22:15;6.60;87.60
14142;DHT22;7151;52.246;4.820;2022-12-11T04:25:01;6.60;87.70
14142;DHT22;7151;52.246;4.820;2022-12-11T04:27:28;6.60;87.60
14142;DHT22;7151;52.246;4.820;2022-12-11T04:30:15;6.70;87.80
14142;DHT22;7151;52.246;4.820;2022-12-11T04:32:41;6.70;87.70
14142;DHT22;7151;52.246;4.820;2022-12-11T04:35:08;6.70;87.60
14142;DHT22;7151;52.246;4.820;2022-12-11T04:37:35;6.70;87.60
14142;DHT22;7151;52.246;4.820;2022-12-11T04:40:01;6.70;87.60
14142;DHT22;7151;52.246;4.820;2022-12-11T04:42:27;6.70;87.60
14142;DHT22;7151;52.246;4.820;2022-12-11T04:44:53;6.70;87.60
14142;DHT22;7151;52.246;4.820;2022-12-11T04:47:18;6.70;87.60
14142;DHT22;7151;52.246;4.820;2022-12-11T04:49:44;6.70;87.60
14142;DHT22;7151;52.246;4.820;2022-12-11T04:52:10;6.70;87.50
14142;DHT22;7151;52.246;4.820;2022-12-11T04:54:35;6.70;87.50
14142;DHT22;7151;52.246;4.820;2022-12-11T04:57:01;6.70;87.50
14142;DHT22;7151;52.246;4.820;2022-12-11T04:59:26;6.70;87.40
14142;DHT22;7151;52.246;4.820;2022-12-11T05:01:52;6.80;87.50
14142;DHT22;7151;52.246;4.820;2022-12-11T05:04:18;6.80;87.60
14142;DHT22;7151;52.246;4.820;2022-12-11T05:06:43;6.80;87.50
14142;DHT22;7151;52.246;4.820;2022-12-11T05:09:12;6.80;87.50
14142;DHT22;7151;52.246;4.820;2022-12-11T05:11:38;6.80;87.50
14142;DHT22;7151;52.246;4.820;2022-12-11T05:14:04;6.80;87.50
14142;DHT22;7151;52.246;4.820;2022-12-11T05:16:29;6.80;87.40
14142;DHT22;7151;52.246;4.820;2022-12-11T05:18:55;6.80;87.40
14142;DHT22;7151;52.246;4.820;2022-12-11T05:21:20;6.80;87.40
14142;DHT22;7151;52.246;4.820;2022-12-11T05:23:46;6.80;87.40
14142;DHT22;7151;52.246;4.820;2022-12-11T05:26:15;6.80;87.50
14142;DHT22;7151;52.246;4.820;2022-12-11T05:28:41;6.80;87.50
14142;DHT22;7151;52.246;4.820;2022-12-11T05:31:12;6.80;87.40
14142;DHT22;7151;52.246;4.820;2022-12-11T05:33:38;6.80;87.40
14142;DHT22;7151;52.246;4.820;2022-12-11T05:36:05;6.80;87.30
14142;DHT22;7151;52.246;4.820;2022-12-11T05:38:31;6.80;87.30
14142;DHT22;7151;52.246;4.820;2022-12-11T05:41:06;6.80;87.30
14142;DHT22;7151;52.246;4.820;2022-12-11T05:43:34;6.80;87.30
14142;DHT22;7151;52.246;4.820;2022-12-11T05:46:11;6.80;87.40
14142;DHT22;7151;52.246;4.820;2022-12-11T05:48:37;6.80;87.40
14142;DHT22;7151;52.246;4.820;2022-12-11T05:51:04;6.80;87.40
14142;DHT22;7151;52.246;4.820;2022-12-11T05:53:31;6.80;87.30
14142;DHT22;7151;52.246;4.820;2022-12-11T05:56:05;6.80;87.30
14142;DHT22;7151;52.246;4.820;2022-12-11T05:58:32;6.80;87.30
14142;DHT22;7151;52.246;4.820;2022-12-11T06:00:58;6.80;87.30
14142;DHT22;7151;52.246;4.820;2022-12-11T06:03:24;6.80;87.30
14142;DHT22;7151;52.246;4.820;2022-12-11T06:05:49;6.80;87.30
14142;DHT22;7151;52.246;4.820;2022-12-11T06:08:15;6.80;87.30
14142;DHT22;7151;52.246;4.820;2022-12-11T06:10:48;6.80;87.30
14142;DHT22;7151;52.246;4.820;2022-12-11T06:13:14;6.80;87.30
14142;DHT22;7151;52.246;4.820;2022-12-11T06:15:40;6.80;87.30
14142;DHT22;7151;52.246;4.820;2022-12-11T06:18:06;6.80;87.20
14142;DHT22;7151;52.246;4.820;2022-12-11T06:20:32;6.80;87.10
14142;DHT22;7151;52.246;4.820;2022-12-11T06:22:59;6.80;87.10
14142;DHT22;7151;52.246;4.820;2022-12-11T06:25:25;6.80;87.10
14142;DHT22;7151;52.246;4.820;2022-12-11T06:27:50;6.80;87.00
14142;DHT22;7151;52.246;4.820;2022-12-11T06:30:16;6.80;87.00
14142;DHT22;7151;52.246;4.820;2022-12-11T06:32:42;6.80;87.00
14142;DHT22;7151;52.246;4.820;2022-12-11T06:35:08;6.80;86.90
14142;DHT22;7151;52.246;4.820;2022-12-11T06:37:35;6.80;86.90
14142;DHT22;7151;52.246;4.820;2022-12-11T06:40:02;6.80;87.00
14142;DHT22;7151;52.246;4.820;2022-12-11T06:42:31;6.80;86.90
14142;DHT22;7151;52.246;4.820;2022-12-11T06:44:57;6.80;86.80
14142;DHT22;7151;52.246;4.820;2022-12-11T06:47:28;6.80;86.80
14142;DHT22;7151;52.246;4.820;2022-12-11T06:49:54;6.70;86.70
14142;DHT22;7151;52.246;4.820;2022-12-11T06:52:21;6.70;86.50
14142;DHT22;7151;52.246;4.820;2022-12-11T06:54:46;6.70;86.40
14142;DHT22;7151;52.246;4.820;2022-12-11T06:57:12;6.70;86.30
14142;DHT22;7151;52.246;4.820;2022-12-11T06:59:37;6.70;86.20
14142;DHT22;7151;52.246;4.820;2022-12-11T07:02:03;6.70;86.20
14142;DHT22;7151;52.246;4.820;2022-12-11T07:04:29;6.70;86.20
14142;DHT22;7151;52.246;4.820;2022-12-11T07:06:55;6.70;86.00
14142;DHT22;7151;52.246;4.820;2022-12-11T07:09:22;6.70;85.90
14142;DHT22;7151;52.246;4.820;2022-12-11T07:11:51;6.70;86.00
14142;DHT22;7151;52.246;4.820;2022-12-11T07:14:17;6.70;86.10
14142;DHT22;7151;52.246;4.820;2022-12-11T07:16:43;6.70;86.00
14142;DHT22;7151;52.246;4.820;2022-12-11T07:19:09;6.70;86.00
14142;DHT22;7151;52.246;4.820;2022-12-11T07:21:35;6.70;86.00
14142;DHT22;7151;52.246;4.820;2022-12-11T07:24:01;6.60;85.90
14142;DHT22;7151;52.246;4.820;2022-12-11T07:26:27;6.60;85.90
14142;DHT22;7151;52.246;4.820;2022-12-11T07:28:56;6.60;85.90
14142;DHT22;7151;52.246;4.820;2022-12-11T07:31:23;6.60;85.90
14142;DHT22;7151;52.246;4.820;2022-12-11T07:33:57;6.60;85.90
14142;DHT22;7151;52.246;4.820;2022-12-11T07:36:23;6.60;85.90
14142;DHT22;7151;52.246;4.820;2022-12-11T07:38:49;6.60;85.90
14142;DHT22;7151;52.246;4.820;2022-12-11T07:41:15;6.60;85.90
14142;DHT22;7151;52.246;4.820;2022-12-11T07:43:42;6.60;85.90
14142;DHT22;7151;52.246;4.820;2022-12-11T07:46:12;6.60;85.80
14142;DHT22;7151;52.246;4.820;2022-12-11T07:48:39;6.60;85.90
14142;DHT22;7151;52.246;4.820;2022-12-11T07:51:31;6.60;85.80
14142;DHT22;7151;52.246;4.820;2022-12-11T07:53:59;6.60;85.80
14142;DHT22;7151;52.246;4.820;2022-12-11T07:56:26;6.60;85.70
14142;DHT22;7151;52.246;4.820;2022-12-11T07:58:52;6.60;85.60
14142;DHT22;7151;52.246;4.820;2022-12-11T08:01:24;6.60;85.60
14142;DHT22;7151;52.246;4.820;2022-12-11T08:03:53;6.60;85.60
14142;DHT22;7151;52.246;4.820;2022-12-11T08:06:23;6.60;85.60
14142;DHT22;7151;52.246;4.820;2022-12-11T08:08:49;6.60;85.50
14142;DHT22;7151;52.246;4.820;2022-12-11T08:11:15;6.60;85.50
14142;DHT22;7151;52.246;4.820;2022-12-11T08:13:42;6.60;85.50
14142;DHT22;7151;52.246;4.820;2022-12-11T08:16:10;6.60;85.50
14142;DHT22;7151;52.246;4.820;2022-12-11T08:18:37;6.60;85.50
14142;DHT22;7151;52.246;4.820;2022-12-11T08:21:10;6.60;85.50
14142;DHT22;7151;52.246;4.820;2022-12-11T08:23:36;6.60;85.50
14142;DHT22;7151;52.246;4.820;2022-12-11T08:26:07;6.60;85.50
14142;DHT22;7151;52.246;4.820;2022-12-11T08:28:33;6.60;85.50
14142;DHT22;7151;52.246;4.820;2022-12-11T08:30:59;6.60;85.40
14142;DHT22;7151;52.246;4.820;2022-12-11T08:33:27;6.60;85.40
14142;DHT22;7151;52.246;4.820;2022-12-11T08:35:53;6.60;85.30
14142;DHT22;7151;52.246;4.820;2022-12-11T08:38:19;6.60;85.30
14142;DHT22;7151;52.246;4.820;2022-12-11T08:40:44;6.60;85.30
14142;DHT22;7151;52.246;4.820;2022-12-11T08:43:10;6.60;85.30
14142;DHT22;7151;52.246;4.820;2022-12-11T08:45:36;6.60;85.30
14142;DHT22;7151;52.246;4.820;2022-12-11T08:48:02;6.60;85.30
14142;DHT22;7151;52.246;4.820;2022-12-11T08:50:27;6.60;85.30
14142;DHT22;7151;52.246;4.820;2022-12-11T08:52:53;6.60;85.20
14142;DHT22;7151;52.246;4.820;2022-12-11T08:55:19;6.70;85.30
14142;DHT22;7151;52.246;4.820;2022-12-11T08:57:46;6.60;85.20
14142;DHT22;7151;52.246;4.820;2022-12-11T09:00:12;6.70;85.20
14142;DHT22;7151;52.246;4.820;2022-12-11T09:02:39;6.70;85.20
14142;DHT22;7151;52.246;4.820;2022-12-11T09:05:05;6.70;85.20
14142;DHT22;7151;52.246;4.820;2022-12-11T09:07:35;6.70;85.20
14142;DHT22;7151;52.246;4.820;2022-12-11T09:10:02;6.70;85.10
14142;DHT22;7151;52.246;4.820;2022-12-11T09:12:28;6.70;85.10
14142;DHT22;7151;52.246;4.820;2022-12-11T09:14:54;6.70;85.70
14142;DHT22;7151;52.246;4.820;2022-12-11T09:17:19;6.70;85.00
14142;DHT22;7151;52.246;4.820;2022-12-11T09:19:45;6.70;84.90
14142;DHT22;7151;52.246;4.820;2022-12-11T09:22:10;6.70;84.90
14142;DHT22;7151;52.246;4.820;2022-12-11T09:24:37;6.70;84.90
14142;DHT22;7151;52.246;4.820;2022-12-11T09:27:04;6.70;84.90
14142;DHT22;7151;52.246;4.820;2022-12-11T09:29:30;6.70;84.90
14142;DHT22;7151;52.246;4.820;2022-12-11T09:31:56;6.70;84.90
14142;DHT22;7151;52.246;4.820;2022-12-11T09:34:22;6.70;84.90
14142;DHT22;7151;52.246;4.820;2022-12-11T09:36:48;6.70;84.90
14142;DHT22;7151;52.246;4.820;2022-12-11T09:39:15;6.70;84.90
14142;DHT22;7151;52.246;4.820;2022-12-11T09:46:57;6.80;84.80
14142;DHT22;7151;52.246;4.820;2022-12-11T09:49:27;6.80;84.60
14142;DHT22;7151;52.246;4.820;2022-12-11T09:53:17;6.80;84.60
14142;DHT22;7151;52.246;4.820;2022-12-11T09:55:19;6.80;84.40
14142;DHT22;7151;52.246;4.820;2022-12-11T10:00:48;6.80;84.30
14142;DHT22;7151;52.246;4.820;2022-12-11T10:03:29;6.80;84.40
14142;DHT22;7151;52.246;4.820;2022-12-11T10:14:37;6.80;84.30
14142;DHT22;7151;52.246;4.820;2022-12-11T10:19:36;6.80;84.50
14142;DHT22;7151;52.246;4.820;2022-12-11T10:22:07;6.80;84.40
14142;DHT22;7151;52.246;4.820;2022-12-11T10:24:40;6.80;84.50
14142;DHT22;7151;52.246;4.820;2022-12-11T10:27:19;6.90;84.50
14142;DHT22;7151;52.246;4.820;2022-12-11T10:29:56;6.90;84.50
14142;DHT22;7151;52.246;4.820;2022-12-11T10:32:31;6.90;84.60
14142;DHT22;7151;52.246;4.820;2022-12-11T10:35:02;6.90;84.60
14142;DHT22;7151;52.246;4.820;2022-12-11T10:37:29;6.90;84.60
14142;DHT22;7151;52.246;4.820;2022-12-11T10:39:55;6.90;84.60
14142;DHT22;7151;52.246;4.820;2022-12-11T10:42:22;6.90;84.60
14142;DHT22;7151;52.246;4.820;2022-12-11T10:44:56;6.90;84.60
14142;DHT22;7151;52.246;4.820;2022-12-11T10:47:22;6.90;84.60
14142;DHT22;7151;52.246;4.820;2022-12-11T10:49:56;6.90;84.50
14142;DHT22;7151;52.246;4.820;2022-12-11T10:52:34;7.00;84.60
14142;DHT22;7151;52.246;4.820;2022-12-11T10:55:16;7.00;84.60
14142;DHT22;7151;52.246;4.820;2022-12-11T10:57:43;7.00;84.70
14142;DHT22;7151;52.246;4.820;2022-12-11T11:00:45;7.00;84.70
14142;DHT22;7151;52.246;4.820;2022-12-11T11:03:24;7.00;84.70
14142;DHT22;7151;52.246;4.820;2022-12-11T11:08:38;7.00;84.60
14142;DHT22;7151;52.246;4.820;2022-12-11T11:11:04;7.10;84.70
14142;DHT22;7151;52.246;4.820;2022-12-11T11:13:31;7.10;84.60
14142;DHT22;7151;52.246;4.820;2022-12-11T11:16:04;7.00;84.60
14142;DHT22;7151;52.246;4.820;2022-12-11T11:18:32;7.00;84.50
14142;DHT22;7151;52.246;4.820;2022-12-11T11:20:58;7.00;84.60
14142;DHT22;7151;52.246;4.820;2022-12-11T11:23:25;7.10;84.60
14142;DHT22;7151;52.246;4.820;2022-12-11T11:25:56;7.10;84.60
14142;DHT22;7151;52.246;4.820;2022-12-11T11:28:35;7.10;84.60
14142;DHT22;7151;52.246;4.820;2022-12-11T11:31:12;7.10;84.50
14142;DHT22;7151;52.246;4.820;2022-12-11T11:36:27;7.10;84.60
14142;DHT22;7151;52.246;4.820;2022-12-11T11:39:10;7.10;84.60
14142;DHT22;7151;52.246;4.820;2022-12-11T11:44:16;7.10;84.80
14142;DHT22;7151;52.246;4.820;2022-12-11T11:52:06;7.10;84.70
14142;DHT22;7151;52.246;4.820;2022-12-11T11:54:42;7.10;84.70
14142;DHT22;7151;52.246;4.820;2022-12-11T11:57:18;7.10;84.80
14142;DHT22;7151;52.246;4.820;2022-12-11T11:59:55;7.10;84.80
14142;DHT22;7151;52.246;4.820;2022-12-11T12:02:22;7.10;84.80
14142;DHT22;7151;52.246;4.820;2022-12-11T12:04:48;7.10;84.80
14142;DHT22;7151;52.246;4.820;2022-12-11T12:10:14;7.20;84.80
14142;DHT22;7151;52.246;4.820;2022-12-11T12:13:14;7.20;84.80
14142;DHT22;7151;52.246;4.820;2022-12-11T12:15:50;7.20;84.80
14142;DHT22;7151;52.246;4.820;2022-12-11T12:24:20;7.20;84.80
14142;DHT22;7151;52.246;4.820;2022-12-11T12:26:56;7.20;84.70
14142;DHT22;7151;52.246;4.820;2022-12-11T12:37:57;7.30;84.60
14142;DHT22;7151;52.246;4.820;2022-12-11T12:48:26;7.30;84.30
14142;DHT22;7151;52.246;4.820;2022-12-11T12:50:51;7.30;84.20
14142;DHT22;7151;52.246;4.820;2022-12-11T12:53:27;7.30;84.00
14142;DHT22;7151;52.246;4.820;2022-12-11T12:55:55;7.30;84.00
14142;DHT22;7151;52.246;4.820;2022-12-11T12:58:41;7.30;83.90
14142;DHT22;7151;52.246;4.820;2022-12-11T13:04:05;7.30;83.90
14142;DHT22;7151;52.246;4.820;2022-12-11T13:06:43;7.30;83.90
14142;DHT22;7151;52.246;4.820;2022-12-11T13:09:20;7.30;83.70
14142;DHT22;7151;52.246;4.820;2022-12-11T13:11:48;7.30;83.70
14142;DHT22;7151;52.246;4.820;2022-12-11T13:16:44;7.30;83.90
14142;DHT22;7151;52.246;4.820;2022-12-11T13:24:31;7.30;83.90
14142;DHT22;7151;52.246;4.820;2022-12-11T13:27:21;7.30;83.90
14142;DHT22;7151;52.246;4.820;2022-12-11T13:29:47;7.30;83.90
14142;DHT22;7151;52.246;4.820;2022-12-11T13:34:45;7.30;84.00
14142;DHT22;7151;52.246;4.820;2022-12-11T13:37:30;7.30;84.00
14142;DHT22;7151;52.246;4.820;2022-12-11T13:39:58;7.30;84.00
14142;DHT22;7151;52.246;4.820;2022-12-11T13:42:30;7.30;84.00
14142;DHT22;7151;52.246;4.820;2022-12-11T13:44:58;7.30;84.00
14142;DHT22;7151;52.246;4.820;2022-12-11T13:47:24;7.30;84.00
14142;DHT22;7151;52.246;4.820;2022-12-11T13:49:54;7.30;83.90
14142;DHT22;7151;52.246;4.820;2022-12-11T13:52:22;7.40;83.90
14142;DHT22;7151;52.246;4.820;2022-12-11T13:54:54;7.40;83.90
14142;DHT22;7151;52.246;4.820;2022-12-11T13:57:22;7.40;83.90
14142;DHT22;7151;52.246;4.820;2022-12-11T13:59:52;7.40;83.90
14142;DHT22;7151;52.246;4.820;2022-12-11T14:02:37;7.40;83.90
14142;DHT22;7151;52.246;4.820;2022-12-11T14:05:07;7.40;83.80
14142;DHT22;7151;52.246;4.820;2022-12-11T14:07:39;7.40;83.80
14142;DHT22;7151;52.246;4.820;2022-12-11T14:10:30;7.40;83.70
14142;DHT22;7151;52.246;4.820;2022-12-11T14:13:01;7.40;83.70
14142;DHT22;7151;52.246;4.820;2022-12-11T14:15:29;7.40;83.70
14142;DHT22;7151;52.246;4.820;2022-12-11T14:17:56;7.40;83.70
14142;DHT22;7151;52.246;4.820;2022-12-11T14:20:28;7.40;83.80
14142;DHT22;7151;52.246;4.820;2022-12-11T14:23:15;7.30;83.70
14142;DHT22;7151;52.246;4.820;2022-12-11T14:25:41;7.30;83.60
14142;DHT22;7151;52.246;4.820;2022-12-11T14:28:15;7.30;83.60
14142;DHT22;7151;52.246;4.820;2022-12-11T14:30:46;7.30;83.60
14142;DHT22;7151;52.246;4.820;2022-12-11T14:33:14;7.30;83.60
14142;DHT22;7151;52.246;4.820;2022-12-11T14:35:42;7.30;83.60
14142;DHT22;7151;52.246;4.820;2022-12-11T14:38:43;7.30;83.60
14142;DHT22;7151;52.246;4.820;2022-12-11T14:41:20;7.30;83.60
14142;DHT22;7151;52.246;4.820;2022-12-11T14:44:01;7.30;83.60
14142;DHT22;7151;52.246;4.820;2022-12-11T14:46:38;7.30;83.60
14142;DHT22;7151;52.246;4.820;2022-12-11T14:49:22;7.30;83.60
14142;DHT22;7151;52.246;4.820;2022-12-11T14:51:49;7.30;83.60
14142;DHT22;7151;52.246;4.820;2022-12-11T14:54:30;7.30;83.60
14142;DHT22;7151;52.246;4.820;2022-12-11T14:56:57;7.30;83.60
14142;DHT22;7151;52.246;4.820;2022-12-11T14:59:25;7.30;83.60
14142;DHT22;7151;52.246;4.820;2022-12-11T15:02:02;7.30;83.60
14142;DHT22;7151;52.246;4.820;2022-12-11T15:04:42;7.30;83.60
14142;DHT22;7151;52.246;4.820;2022-12-11T15:07:20;7.30;83.70
14142;DHT22;7151;52.246;4.820;2022-12-11T15:09:46;7.30;83.70
14142;DHT22;7151;52.246;4.820;2022-12-11T15:12:15;7.30;83.70
14142;DHT22;7151;52.246;4.820;2022-12-11T15:15:04;7.30;83.60
14142;DHT22;7151;52.246;4.820;2022-12-11T15:17:32;7.30;83.60
14142;DHT22;7151;52.246;4.820;2022-12-11T15:20:06;7.30;83.60
14142;DHT22;7151;52.246;4.820;2022-12-11T15:22:33;7.30;83.40
14142;DHT22;7151;52.246;4.820;2022-12-11T15:24:59;7.30;83.40
14142;DHT22;7151;52.246;4.820;2022-12-11T15:27:34;7.30;83.30
14142;DHT22;7151;52.246;4.820;2022-12-11T15:35:36;7.30;83.30
14142;DHT22;7151;52.246;4.820;2022-12-11T15:38:02;7.30;83.30
14142;DHT22;7151;52.246;4.820;2022-12-11T15:40:28;7.30;83.30
14142;DHT22;7151;52.246;4.820;2022-12-11T15:42:54;7.30;83.40
14142;DHT22;7151;52.246;4.820;2022-12-11T15:45:24;7.30;83.40
14142;DHT22;7151;52.246;4.820;2022-12-11T15:47:50;7.20;83.40
14142;DHT22;7151;52.246;4.820;2022-12-11T15:50:23;7.20;83.30
14142;DHT22;7151;52.246;4.820;2022-12-11T15:52:50;7.30;83.30
14142;DHT22;7151;52.246;4.820;2022-12-11T15:55:16;7.20;83.20
14142;DHT22;7151;52.246;4.820;2022-12-11T15:57:45;7.20;83.30
14142;DHT22;7151;52.246;4.820;2022-12-11T16:00:16;7.20;83.20
14142;DHT22;7151;52.246;4.820;2022-12-11T16:02:43;7.20;83.30
14142;DHT22;7151;52.246;4.820;2022-12-11T16:05:09;7.20;83.30
14142;DHT22;7151;52.246;4.820;2022-12-11T16:07:37;7.20;83.30
14142;DHT22;7151;52.246;4.820;2022-12-11T16:10:03;7.20;83.40
14142;DHT22;7151;52.246;4.820;2022-12-11T16:12:29;7.20;83.30
14142;DHT22;7151;52.246;4.820;2022-12-11T16:14:55;7.20;83.30
14142;DHT22;7151;52.246;4.820;2022-12-11T16:17:20;7.20;83.20
14142;DHT22;7151;52.246;4.820;2022-12-11T16:19:46;7.30;83.30
14142;DHT22;7151;52.246;4.820;2022-12-11T16:22:12;7.30;83.30
14142;DHT22;7151;52.246;4.820;2022-12-11T16:24:39;7.30;83.20
14142;DHT22;7151;52.246;4.820;2022-12-11T16:27:06;7.30;83.10
14142;DHT22;7151;52.246;4.820;2022-12-11T16:29:39;7.30;83.10
14142;DHT22;7151;52.246;4.820;2022-12-11T16:32:05;7.30;83.10
14142;DHT22;7151;52.246;4.820;2022-12-11T16:34:35;7.30;82.90
14142;DHT22;7151;52.246;4.820;2022-12-11T16:37:01;7.30;82.90
14142;DHT22;7151;52.246;4.820;2022-12-11T16:39:27;7.30;82.80
14142;DHT22;7151;52.246;4.820;2022-12-11T16:41:53;7.30;82.80
14142;DHT22;7151;52.246;4.820;2022-12-11T16:44:20;7.30;82.70
14142;DHT22;7151;52.246;4.820;2022-12-11T16:46:46;7.30;82.70
14142;DHT22;7151;52.246;4.820;2022-12-11T16:49:12;7.30;82.60
14142;DHT22;7151;52.246;4.820;2022-12-11T16:51:38;7.30;82.50
14142;DHT22;7151;52.246;4.820;2022-12-11T16:54:04;7.30;82.40
14142;DHT22;7151;52.246;4.820;2022-12-11T16:56:29;7.30;82.20
14142;DHT22;7151;52.246;4.820;2022-12-11T16:58:55;7.30;82.00
14142;DHT22;7151;52.246;4.820;2022-12-11T17:01:21;7.30;81.80
14142;DHT22;7151;52.246;4.820;2022-12-11T17:03:46;7.30;81.80
14142;DHT22;7151;52.246;4.820;2022-12-11T17:06:15;7.30;81.60
14142;DHT22;7151;52.246;4.820;2022-12-11T17:08:41;7.20;81.60
14142;DHT22;7151;52.246;4.820;2022-12-11T17:11:10;7.20;81.60
14142;DHT22;7151;52.246;4.820;2022-12-11T17:13:37;7.20;81.60
14142;DHT22;7151;52.246;4.820;2022-12-11T17:16:07;7.20;81.60
14142;DHT22;7151;52.246;4.820;2022-12-11T17:18:34;7.10;81.40
14142;DHT22;7151;52.246;4.820;2022-12-11T17:21:07;7.20;81.50
14142;DHT22;7151;52.246;4.820;2022-12-11T17:23:33;7.20;81.50
14142;DHT22;7151;52.246;4.820;2022-12-11T17:25:59;7.10;81.50
14142;DHT22;7151;52.246;4.820;2022-12-11T17:28:25;7.20;81.50
14142;DHT22;7151;52.246;4.820;2022-12-11T17:30:50;7.10;81.50
14142;DHT22;7151;52.246;4.820;2022-12-11T17:33:17;7.10;81.40
14142;DHT22;7151;52.246;4.820;2022-12-11T17:35:42;7.10;81.30
14142;DHT22;7151;52.246;4.820;2022-12-11T17:38:08;7.10;81.30
14142;DHT22;7151;52.246;4.820;2022-12-11T17:40:34;7.10;81.30
14142;DHT22;7151;52.246;4.820;2022-12-11T17:42:59;7.10;81.20
14142;DHT22;7151;52.246;4.820;2022-12-11T17:45:25;7.10;81.20
14142;DHT22;7151;52.246;4.820;2022-12-11T17:47:51;7.10;81.10
14142;DHT22;7151;52.246;4.820;2022-12-11T17:50:16;7.10;81.00
14142;DHT22;7151;52.246;4.820;2022-12-11T17:52:42;7.10;81.00